sensor_id;sensor_type;location;lat;lon;timestamp;P1;durP1;ratioP1;P2;durP2;ratioP2
68455;SDS011;55437;55.046;38.838;2022-08-27T00:02:10;113.57;;;63.58;;
68455;SDS011;55437;55.046;38.838;2022-08-27T00:04:36;149.30;;;82.43;;
68455;SDS011;55437;55.046;38.838;2022-08-27T00:07:03;108.43;;;61.15;;
68455;SDS011;55437;55.046;38.838;2022-08-27T00:09:30;97.57;;;54.58;;
68455;SDS011;55437;55.046;38.838;2022-08-27T00:11:56;115.93;;;64.15;;
68455;SDS011;55437;55.046;38.838;2022-08-27T00:14:23;116.25;;;62.72;;
68455;SDS011;55437;55.046;38.838;2022-08-27T00:16:51;99.97;;;55.53;;
68455;SDS011;55437;55.046;38.838;2022-08-27T00:19:17;100.35;;;57.15;;
68455;SDS011;55437;55.046;38.838;2022-08-27T00:21:43;109.88;;;60.35;;
68455;SDS011;55437;55.046;38.838;2022-08-27T00:24:09;115.78;;;63.90;;
68455;SDS011;55437;55.046;38.838;2022-08-27T00:26:36;118.82;;;67.95;;
68455;SDS011;55437;55.046;38.838;2022-08-27T00:29:02;138.43;;;75.85;;
68455;SDS011;55437;55.046;38.838;2022-08-27T00:31:28;153.50;;;85.70;;
68455;SDS011;55437;55.046;38.838;2022-08-27T00:33:56;166.95;;;91.82;;
68455;SDS011;55437;55.046;38.838;2022-08-27T00:36:22;173.95;;;94.75;;
68455;SDS011;55437;55.046;38.838;2022-08-27T00:38:49;157.73;;;89.57;;
68455;SDS011;55437;55.046;38.838;2022-08-27T00:41:17;158.00;;;86.95;;
68455;SDS011;55437;55.046;38.838;2022-08-27T00:43:55;124.55;;;66.97;;
68455;SDS011;55437;55.046;38.838;2022-08-27T00:46:30;159.27;;;86.93;;
68455;SDS011;55437;55.046;38.838;2022-08-27T00:48:59;179.38;;;96.85;;
68455;SDS011;55437;55.046;38.838;2022-08-27T00:51:29;179.27;;;98.97;;
68455;SDS011;55437;55.046;38.838;2022-08-27T00:53:56;168.18;;;93.70;;
68455;SDS011;55437;55.046;38.838;2022-08-27T00:56:27;118.97;;;69.07;;
68455;SDS011;55437;55.046;38.838;2022-08-27T00:58:56;133.15;;;74.97;;
68455;SDS011;55437;55.046;38.838;2022-08-27T01:01:24;127.65;;;72.57;;
68455;SDS011;55437;55.046;38.838;2022-08-27T01:03:53;132.32;;;74.70;;
68455;SDS011;55437;55.046;38.838;2022-08-27T01:06:22;141.77;;;79.07;;
68455;SDS011;55437;55.046;38.838;2022-08-27T01:08:58;154.90;;;87.20;;
68455;SDS011;55437;55.046;38.838;2022-08-27T01:11:29;161.40;;;91.05;;
68455;SDS011;55437;55.046;38.838;2022-08-27T01:13:55;159.70;;;86.68;;
68455;SDS011;55437;55.046;38.838;2022-08-27T01:16:24;174.10;;;93.25;;
68455;SDS011;55437;55.046;38.838;2022-08-27T01:18:54;158.35;;;89.40;;
68455;SDS011;55437;55.046;38.838;2022-08-27T01:26:58;139.93;;;78.30;;
68455;SDS011;55437;55.046;38.838;2022-08-27T01:29:26;138.35;;;78.63;;
68455;SDS011;55437;55.046;38.838;2022-08-27T01:31:54;141.15;;;80.82;;
68455;SDS011;55437;55.046;38.838;2022-08-27T01:34:24;149.93;;;83.82;;
68455;SDS011;55437;55.046;38.838;2022-08-27T01:36:50;151.57;;;82.47;;
68455;SDS011;55437;55.046;38.838;2022-08-27T01:39:16;151.05;;;82.50;;
68455;SDS011;55437;55.046;38.838;2022-08-27T01:41:41;156.10;;;83.57;;
68455;SDS011;55437;55.046;38.838;2022-08-27T01:44:07;164.95;;;87.75;;
68455;SDS011;55437;55.046;38.838;2022-08-27T01:46:33;153.68;;;85.45;;
68455;SDS011;55437;55.046;38.838;2022-08-27T01:48:59;151.70;;;82.53;;
68455;SDS011;55437;55.046;38.838;2022-08-27T01:51:25;143.43;;;79.55;;
68455;SDS011;55437;55.046;38.838;2022-08-27T01:53:50;152.88;;;81.90;;
68455;SDS011;55437;55.046;38.838;2022-08-27T01:56:16;246.98;;;130.32;;
68455;SDS011;55437;55.046;38.838;2022-08-27T01:58:42;218.48;;;116.28;;
68455;SDS011;55437;55.046;38.838;2022-08-27T02:01:10;174.23;;;94.22;;
68455;SDS011;55437;55.046;38.838;2022-08-27T02:03:38;219.07;;;120.80;;
68455;SDS011;55437;55.046;38.838;2022-08-27T02:06:07;157.38;;;90.95;;
68455;SDS011;55437;55.046;38.838;2022-08-27T02:08:34;218.73;;;115.93;;
68455;SDS011;55437;55.046;38.838;2022-08-27T02:11:00;163.93;;;91.32;;
68455;SDS011;55437;55.046;38.838;2022-08-27T02:13:26;176.50;;;99.78;;
68455;SDS011;55437;55.046;38.838;2022-08-27T02:15:52;202.90;;;108.97;;
68455;SDS011;55437;55.046;38.838;2022-08-27T02:18:18;299.90;;;160.77;;
68455;SDS011;55437;55.046;38.838;2022-08-27T02:20:44;187.07;;;99.85;;
68455;SDS011;55437;55.046;38.838;2022-08-27T02:23:12;195.45;;;106.20;;
68455;SDS011;55437;55.046;38.838;2022-08-27T02:25:38;181.98;;;99.97;;
68455;SDS011;55437;55.046;38.838;2022-08-27T02:28:06;156.88;;;86.13;;
68455;SDS011;55437;55.046;38.838;2022-08-27T02:30:32;177.60;;;98.28;;
68455;SDS011;55437;55.046;38.838;2022-08-27T02:32:59;183.00;;;98.78;;
68455;SDS011;55437;55.046;38.838;2022-08-27T02:35:27;169.35;;;93.88;;
68455;SDS011;55437;55.046;38.838;2022-08-27T02:38:12;168.98;;;95.70;;
68455;SDS011;55437;55.046;38.838;2022-08-27T02:40:38;176.82;;;99.22;;
68455;SDS011;55437;55.046;38.838;2022-08-27T02:43:04;179.15;;;96.00;;
68455;SDS011;55437;55.046;38.838;2022-08-27T02:45:31;179.80;;;97.93;;
68455;SDS011;55437;55.046;38.838;2022-08-27T02:47:56;182.40;;;101.88;;
68455;SDS011;55437;55.046;38.838;2022-08-27T02:50:22;206.75;;;109.35;;
68455;SDS011;55437;55.046;38.838;2022-08-27T02:52:48;203.65;;;108.93;;
68455;SDS011;55437;55.046;38.838;2022-08-27T02:55:14;203.70;;;110.97;;
68455;SDS011;55437;55.046;38.838;2022-08-27T02:57:40;226.15;;;117.03;;
68455;SDS011;55437;55.046;38.838;2022-08-27T03:00:07;225.30;;;119.97;;
68455;SDS011;55437;55.046;38.838;2022-08-27T03:02:36;206.52;;;114.00;;
68455;SDS011;55437;55.046;38.838;2022-08-27T03:05:02;199.77;;;110.70;;
68455;SDS011;55437;55.046;38.838;2022-08-27T03:07:28;212.55;;;114.85;;
68455;SDS011;55437;55.046;38.838;2022-08-27T03:09:54;201.68;;;108.22;;
68455;SDS011;55437;55.046;38.838;2022-08-27T03:12:22;210.27;;;114.47;;
68455;SDS011;55437;55.046;38.838;2022-08-27T03:14:48;209.88;;;115.25;;
68455;SDS011;55437;55.046;38.838;2022-08-27T03:17:14;196.52;;;110.05;;
68455;SDS011;55437;55.046;38.838;2022-08-27T03:19:59;197.50;;;103.38;;
68455;SDS011;55437;55.046;38.838;2022-08-27T03:22:26;184.23;;;104.13;;
68455;SDS011;55437;55.046;38.838;2022-08-27T03:24:52;189.80;;;101.18;;
68455;SDS011;55437;55.046;38.838;2022-08-27T03:27:22;185.52;;;102.10;;
68455;SDS011;55437;55.046;38.838;2022-08-27T03:29:48;187.85;;;102.97;;
68455;SDS011;55437;55.046;38.838;2022-08-27T03:32:14;188.00;;;106.22;;
68455;SDS011;55437;55.046;38.838;2022-08-27T03:34:40;192.27;;;106.38;;
68455;SDS011;55437;55.046;38.838;2022-08-27T03:37:06;216.30;;;114.25;;
68455;SDS011;55437;55.046;38.838;2022-08-27T03:39:32;215.25;;;120.10;;
68455;SDS011;55437;55.046;38.838;2022-08-27T03:41:57;232.90;;;123.93;;
68455;SDS011;55437;55.046;38.838;2022-08-27T03:44:23;206.73;;;115.35;;
68455;SDS011;55437;55.046;38.838;2022-08-27T03:46:49;216.98;;;113.35;;
68455;SDS011;55437;55.046;38.838;2022-08-27T03:49:17;217.05;;;118.93;;
68455;SDS011;55437;55.046;38.838;2022-08-27T03:51:44;238.40;;;129.15;;
68455;SDS011;55437;55.046;38.838;2022-08-27T03:54:10;250.57;;;131.05;;
68455;SDS011;55437;55.046;38.838;2022-08-27T03:56:36;238.85;;;126.57;;
68455;SDS011;55437;55.046;38.838;2022-08-27T03:59:04;254.02;;;135.05;;
68455;SDS011;55437;55.046;38.838;2022-08-27T04:01:31;254.23;;;140.43;;
68455;SDS011;55437;55.046;38.838;2022-08-27T04:03:57;274.60;;;146.48;;
68455;SDS011;55437;55.046;38.838;2022-08-27T04:06:23;274.08;;;146.95;;
68455;SDS011;55437;55.046;38.838;2022-08-27T04:08:49;257.73;;;143.27;;
68455;SDS011;55437;55.046;38.838;2022-08-27T04:11:15;271.48;;;146.88;;
68455;SDS011;55437;55.046;38.838;2022-08-27T04:13:41;276.58;;;150.05;;
68455;SDS011;55437;55.046;38.838;2022-08-27T04:16:09;258.80;;;146.50;;
68455;SDS011;55437;55.046;38.838;2022-08-27T04:18:35;269.13;;;147.23;;
68455;SDS011;55437;55.046;38.838;2022-08-27T04:21:06;292.15;;;155.38;;
68455;SDS011;55437;55.046;38.838;2022-08-27T04:23:33;285.42;;;157.85;;
68455;SDS011;55437;55.046;38.838;2022-08-27T04:26:02;303.00;;;171.30;;
68455;SDS011;55437;55.046;38.838;2022-08-27T04:28:30;316.50;;;173.82;;
68455;SDS011;55437;55.046;38.838;2022-08-27T04:30:56;345.38;;;201.50;;
68455;SDS011;55437;55.046;38.838;2022-08-27T04:33:22;347.98;;;189.98;;
68455;SDS011;55437;55.046;38.838;2022-08-27T04:35:56;326.20;;;187.20;;
68455;SDS011;55437;55.046;38.838;2022-08-27T04:38:26;316.92;;;174.65;;
68455;SDS011;55437;55.046;38.838;2022-08-27T04:40:52;309.50;;;180.38;;
68455;SDS011;55437;55.046;38.838;2022-08-27T04:43:37;311.15;;;178.32;;
68455;SDS011;55437;55.046;38.838;2022-08-27T04:46:03;311.42;;;178.13;;
68455;SDS011;55437;55.046;38.838;2022-08-27T04:48:29;315.38;;;178.18;;
68455;SDS011;55437;55.046;38.838;2022-08-27T04:50:54;290.67;;;171.02;;
68455;SDS011;55437;55.046;38.838;2022-08-27T04:53:20;301.50;;;172.25;;
68455;SDS011;55437;55.046;38.838;2022-08-27T04:55:47;304.55;;;176.65;;
68455;SDS011;55437;55.046;38.838;2022-08-27T04:58:16;287.75;;;168.68;;
68455;SDS011;55437;55.046;38.838;2022-08-27T05:00:43;294.75;;;171.45;;
68455;SDS011;55437;55.046;38.838;2022-08-27T05:03:11;279.58;;;166.07;;
68455;SDS011;55437;55.046;38.838;2022-08-27T05:05:38;280.80;;;168.93;;
68455;SDS011;55437;55.046;38.838;2022-08-27T05:08:05;279.98;;;170.15;;
68455;SDS011;55437;55.046;38.838;2022-08-27T05:10:41;282.15;;;170.40;;
68455;SDS011;55437;55.046;38.838;2022-08-27T05:13:09;285.63;;;171.70;;
68455;SDS011;55437;55.046;38.838;2022-08-27T05:15:36;287.40;;;172.13;;
68455;SDS011;55437;55.046;38.838;2022-08-27T05:18:06;281.13;;;167.45;;
68455;SDS011;55437;55.046;38.838;2022-08-27T05:20:33;280.67;;;171.18;;
68455;SDS011;55437;55.046;38.838;2022-08-27T05:23:06;272.23;;;163.27;;
68455;SDS011;55437;55.046;38.838;2022-08-27T05:25:36;252.27;;;154.57;;
68455;SDS011;55437;55.046;38.838;2022-08-27T05:28:02;249.95;;;151.82;;
68455;SDS011;55437;55.046;38.838;2022-08-27T05:30:28;243.13;;;149.43;;
68455;SDS011;55437;55.046;38.838;2022-08-27T05:32:54;226.55;;;142.07;;
68455;SDS011;55437;55.046;38.838;2022-08-27T05:35:20;232.88;;;145.95;;
68455;SDS011;55437;55.046;38.838;2022-08-27T05:37:45;230.32;;;138.98;;
68455;SDS011;55437;55.046;38.838;2022-08-27T05:40:11;206.95;;;128.10;;
68455;SDS011;55437;55.046;38.838;2022-08-27T05:42:39;210.85;;;130.02;;
68455;SDS011;55437;55.046;38.838;2022-08-27T05:45:07;198.68;;;125.88;;
68455;SDS011;55437;55.046;38.838;2022-08-27T05:47:34;178.52;;;116.13;;
68455;SDS011;55437;55.046;38.838;2022-08-27T05:49:59;181.73;;;116.10;;
68455;SDS011;55437;55.046;38.838;2022-08-27T05:52:28;209.18;;;130.85;;
68455;SDS011;55437;55.046;38.838;2022-08-27T05:54:53;205.73;;;128.15;;
68455;SDS011;55437;55.046;38.838;2022-08-27T05:57:19;202.38;;;126.20;;
68455;SDS011;55437;55.046;38.838;2022-08-27T05:59:45;177.90;;;111.55;;
68455;SDS011;55437;55.046;38.838;2022-08-27T06:02:37;172.15;;;109.78;;
68455;SDS011;55437;55.046;38.838;2022-08-27T06:05:04;179.05;;;113.70;;
68455;SDS011;55437;55.046;38.838;2022-08-27T06:07:31;180.02;;;115.28;;
68455;SDS011;55437;55.046;38.838;2022-08-27T06:10:17;186.63;;;116.70;;
68455;SDS011;55437;55.046;38.838;2022-08-27T06:12:44;167.40;;;107.57;;
68455;SDS011;55437;55.046;38.838;2022-08-27T06:15:10;166.27;;;111.10;;
68455;SDS011;55437;55.046;38.838;2022-08-27T06:17:36;169.48;;;114.72;;
68455;SDS011;55437;55.046;38.838;2022-08-27T06:20:02;178.32;;;112.68;;
68455;SDS011;55437;55.046;38.838;2022-08-27T06:22:28;173.85;;;115.03;;
68455;SDS011;55437;55.046;38.838;2022-08-27T06:24:54;160.43;;;110.88;;
68455;SDS011;55437;55.046;38.838;2022-08-27T06:27:20;167.25;;;111.05;;
68455;SDS011;55437;55.046;38.838;2022-08-27T06:29:45;158.60;;;107.95;;
68455;SDS011;55437;55.046;38.838;2022-08-27T06:32:12;162.18;;;109.00;;
68455;SDS011;55437;55.046;38.838;2022-08-27T06:34:39;150.73;;;105.68;;
68455;SDS011;55437;55.046;38.838;2022-08-27T06:37:05;161.40;;;109.85;;
68455;SDS011;55437;55.046;38.838;2022-08-27T06:39:31;161.05;;;107.90;;
68455;SDS011;55437;55.046;38.838;2022-08-27T06:41:58;159.57;;;104.53;;
68455;SDS011;55437;55.046;38.838;2022-08-27T06:44:24;159.05;;;108.35;;
68455;SDS011;55437;55.046;38.838;2022-08-27T06:46:51;144.15;;;97.13;;
68455;SDS011;55437;55.046;38.838;2022-08-27T06:52:07;133.05;;;91.03;;
68455;SDS011;55437;55.046;38.838;2022-08-27T06:54:33;130.52;;;91.38;;
68455;SDS011;55437;55.046;38.838;2022-08-27T06:56:59;142.27;;;95.85;;
68455;SDS011;55437;55.046;38.838;2022-08-27T06:59:25;141.00;;;97.03;;
68455;SDS011;55437;55.046;38.838;2022-08-27T07:01:52;130.60;;;87.32;;
68455;SDS011;55437;55.046;38.838;2022-08-27T07:07:10;112.43;;;76.93;;
68455;SDS011;55437;55.046;38.838;2022-08-27T07:09:38;117.32;;;79.95;;
68455;SDS011;55437;55.046;38.838;2022-08-27T07:12:04;109.50;;;75.47;;
68455;SDS011;55437;55.046;38.838;2022-08-27T07:14:31;112.50;;;71.50;;
68455;SDS011;55437;55.046;38.838;2022-08-27T07:16:57;99.28;;;68.18;;
68455;SDS011;55437;55.046;38.838;2022-08-27T07:19:23;96.95;;;64.45;;
68455;SDS011;55437;55.046;38.838;2022-08-27T07:21:49;94.97;;;62.97;;
68455;SDS011;55437;55.046;38.838;2022-08-27T07:24:15;93.28;;;61.38;;
68455;SDS011;55437;55.046;38.838;2022-08-27T07:27:00;92.82;;;61.17;;
68455;SDS011;55437;55.046;38.838;2022-08-27T07:29:26;87.20;;;61.03;;
68455;SDS011;55437;55.046;38.838;2022-08-27T07:31:51;83.22;;;55.60;;
68455;SDS011;55437;55.046;38.838;2022-08-27T07:34:17;91.30;;;60.45;;
68455;SDS011;55437;55.046;38.838;2022-08-27T07:36:43;81.13;;;56.25;;
68455;SDS011;55437;55.046;38.838;2022-08-27T07:39:11;83.70;;;55.17;;
68455;SDS011;55437;55.046;38.838;2022-08-27T07:41:38;93.40;;;60.75;;
68455;SDS011;55437;55.046;38.838;2022-08-27T07:44:23;93.07;;;62.50;;
68455;SDS011;55437;55.046;38.838;2022-08-27T07:46:49;93.78;;;61.13;;
68455;SDS011;55437;55.046;38.838;2022-08-27T07:49:19;91.43;;;62.35;;
68455;SDS011;55437;55.046;38.838;2022-08-27T07:51:46;87.45;;;56.40;;
68455;SDS011;55437;55.046;38.838;2022-08-27T07:54:13;88.80;;;59.97;;
68455;SDS011;55437;55.046;38.838;2022-08-27T07:56:40;85.93;;;60.00;;
68455;SDS011;55437;55.046;38.838;2022-08-27T07:59:06;87.43;;;59.15;;
68455;SDS011;55437;55.046;38.838;2022-08-27T08:01:36;85.60;;;59.65;;
68455;SDS011;55437;55.046;38.838;2022-08-27T08:04:02;90.43;;;58.47;;
68455;SDS011;55437;55.046;38.838;2022-08-27T08:06:28;84.90;;;61.03;;
68455;SDS011;55437;55.046;38.838;2022-08-27T08:08:53;71.90;;;47.05;;
68455;SDS011;55437;55.046;38.838;2022-08-27T08:11:19;64.53;;;42.67;;
68455;SDS011;55437;55.046;38.838;2022-08-27T08:13:46;62.55;;;39.20;;
68455;SDS011;55437;55.046;38.838;2022-08-27T08:16:12;64.97;;;41.88;;
68455;SDS011;55437;55.046;38.838;2022-08-27T08:18:40;51.90;;;33.72;;
68455;SDS011;55437;55.046;38.838;2022-08-27T08:21:07;56.45;;;34.60;;
68455;SDS011;55437;55.046;38.838;2022-08-27T08:23:35;61.33;;;34.83;;
68455;SDS011;55437;55.046;38.838;2022-08-27T08:26:10;54.13;;;36.22;;
68455;SDS011;55437;55.046;38.838;2022-08-27T08:28:37;54.90;;;34.33;;
68455;SDS011;55437;55.046;38.838;2022-08-27T08:31:03;45.45;;;29.02;;
68455;SDS011;55437;55.046;38.838;2022-08-27T08:33:30;45.35;;;28.52;;
68455;SDS011;55437;55.046;38.838;2022-08-27T08:38:53;44.85;;;29.77;;
68455;SDS011;55437;55.046;38.838;2022-08-27T08:43:48;36.33;;;22.25;;
68455;SDS011;55437;55.046;38.838;2022-08-27T08:49:35;35.28;;;21.90;;
68455;SDS011;55437;55.046;38.838;2022-08-27T08:52:08;33.50;;;21.77;;
68455;SDS011;55437;55.046;38.838;2022-08-27T08:54:43;31.52;;;20.67;;
68455;SDS011;55437;55.046;38.838;2022-08-27T08:57:29;32.90;;;19.75;;
68455;SDS011;55437;55.046;38.838;2022-08-27T09:00:03;29.77;;;19.02;;
68455;SDS011;55437;55.046;38.838;2022-08-27T09:02:36;26.63;;;15.95;;
68455;SDS011;55437;55.046;38.838;2022-08-27T09:05:04;27.40;;;17.65;;
68455;SDS011;55437;55.046;38.838;2022-08-27T09:13:04;23.70;;;14.82;;
68455;SDS011;55437;55.046;38.838;2022-08-27T09:15:38;24.60;;;12.90;;
68455;SDS011;55437;55.046;38.838;2022-08-27T09:18:09;22.25;;;12.18;;
68455;SDS011;55437;55.046;38.838;2022-08-27T09:20:39;27.38;;;15.85;;
68455;SDS011;55437;55.046;38.838;2022-08-27T09:23:23;24.60;;;13.88;;
68455;SDS011;55437;55.046;38.838;2022-08-27T09:25:55;20.95;;;11.90;;
68455;SDS011;55437;55.046;38.838;2022-08-27T09:28:26;22.25;;;12.40;;
68455;SDS011;55437;55.046;38.838;2022-08-27T09:31:13;18.15;;;10.95;;
68455;SDS011;55437;55.046;38.838;2022-08-27T09:33:41;22.60;;;11.30;;
68455;SDS011;55437;55.046;38.838;2022-08-27T09:36:08;20.88;;;11.23;;
68455;SDS011;55437;55.046;38.838;2022-08-27T09:38:40;21.80;;;10.35;;
68455;SDS011;55437;55.046;38.838;2022-08-27T09:41:16;18.08;;;10.05;;
68455;SDS011;55437;55.046;38.838;2022-08-27T09:43:58;13.02;;;7.18;;
68455;SDS011;55437;55.046;38.838;2022-08-27T09:46:26;12.13;;;6.05;;
68455;SDS011;55437;55.046;38.838;2022-08-27T09:48:52;11.48;;;6.35;;
68455;SDS011;55437;55.046;38.838;2022-08-27T09:51:19;16.23;;;5.93;;
68455;SDS011;55437;55.046;38.838;2022-08-27T09:53:57;12.45;;;7.00;;
68455;SDS011;55437;55.046;38.838;2022-08-27T09:59:01;11.98;;;6.40;;
68455;SDS011;55437;55.046;38.838;2022-08-27T10:01:28;19.77;;;7.47;;
68455;SDS011;55437;55.046;38.838;2022-08-27T10:06:36;12.32;;;6.55;;
68455;SDS011;55437;55.046;38.838;2022-08-27T10:09:16;19.55;;;10.80;;
68455;SDS011;55437;55.046;38.838;2022-08-27T10:14:41;18.05;;;9.88;;
68455;SDS011;55437;55.046;38.838;2022-08-27T10:20:23;17.50;;;8.07;;
68455;SDS011;55437;55.046;38.838;2022-08-27T10:26:03;16.38;;;9.50;;
68455;SDS011;55437;55.046;38.838;2022-08-27T10:37:31;19.42;;;10.82;;
68455;SDS011;55437;55.046;38.838;2022-08-27T10:40:41;18.38;;;11.60;;
68455;SDS011;55437;55.046;38.838;2022-08-27T10:46:57;21.38;;;11.18;;
68455;SDS011;55437;55.046;38.838;2022-08-27T10:55:11;19.35;;;10.02;;
68455;SDS011;55437;55.046;38.838;2022-08-27T11:00:28;17.55;;;9.85;;
68455;SDS011;55437;55.046;38.838;2022-08-27T11:06:38;18.70;;;11.10;;
68455;SDS011;55437;55.046;38.838;2022-08-27T11:09:21;19.92;;;10.25;;
68455;SDS011;55437;55.046;38.838;2022-08-27T11:12:07;15.85;;;9.75;;
68455;SDS011;55437;55.046;38.838;2022-08-27T11:14:40;14.90;;;9.40;;
68455;SDS011;55437;55.046;38.838;2022-08-27T11:17:25;14.95;;;8.05;;
68455;SDS011;55437;55.046;38.838;2022-08-27T11:22:37;14.38;;;8.57;;
68455;SDS011;55437;55.046;38.838;2022-08-27T11:25:29;17.25;;;7.97;;
68455;SDS011;55437;55.046;38.838;2022-08-27T11:28:05;16.52;;;8.50;;
68455;SDS011;55437;55.046;38.838;2022-08-27T11:38:59;13.80;;;7.18;;
68455;SDS011;55437;55.046;38.838;2022-08-27T11:44:17;14.95;;;8.25;;
68455;SDS011;55437;55.046;38.838;2022-08-27T11:46:52;16.30;;;8.07;;
68455;SDS011;55437;55.046;38.838;2022-08-27T11:49:28;14.32;;;7.95;;
68455;SDS011;55437;55.046;38.838;2022-08-27T11:52:07;14.63;;;8.32;;
68455;SDS011;55437;55.046;38.838;2022-08-27T11:54:50;16.83;;;8.35;;
68455;SDS011;55437;55.046;38.838;2022-08-27T11:57:30;15.40;;;7.78;;
68455;SDS011;55437;55.046;38.838;2022-08-27T12:00:20;13.60;;;7.78;;
68455;SDS011;55437;55.046;38.838;2022-08-27T12:05:22;18.90;;;7.78;;
68455;SDS011;55437;55.046;38.838;2022-08-27T12:07:58;13.50;;;7.22;;
68455;SDS011;55437;55.046;38.838;2022-08-27T12:32:51;13.05;;;7.57;;
68455;SDS011;55437;55.046;38.838;2022-08-27T12:35:25;14.68;;;7.75;;
68455;SDS011;55437;55.046;38.838;2022-08-27T12:38:18;14.52;;;7.53;;
68455;SDS011;55437;55.046;38.838;2022-08-27T12:40:52;17.05;;;7.57;;
68455;SDS011;55437;55.046;38.838;2022-08-27T12:43:25;15.32;;;7.38;;
68455;SDS011;55437;55.046;38.838;2022-08-27T12:46:04;16.55;;;7.30;;
68455;SDS011;55437;55.046;38.838;2022-08-27T12:48:36;15.23;;;8.27;;
68455;SDS011;55437;55.046;38.838;2022-08-27T12:51:07;14.20;;;6.95;;
68455;SDS011;55437;55.046;38.838;2022-08-27T13:04:45;14.38;;;7.80;;
68455;SDS011;55437;55.046;38.838;2022-08-27T13:07:12;19.35;;;7.28;;
68455;SDS011;55437;55.046;38.838;2022-08-27T13:09:49;15.18;;;8.45;;
68455;SDS011;55437;55.046;38.838;2022-08-27T13:12:16;16.42;;;7.35;;
68455;SDS011;55437;55.046;38.838;2022-08-27T13:14:44;13.25;;;7.57;;
68455;SDS011;55437;55.046;38.838;2022-08-27T13:17:13;16.25;;;8.65;;
68455;SDS011;55437;55.046;38.838;2022-08-27T13:19:46;14.98;;;8.90;;
68455;SDS011;55437;55.046;38.838;2022-08-27T13:22:30;15.65;;;7.75;;
68455;SDS011;55437;55.046;38.838;2022-08-27T13:25:03;14.35;;;7.47;;
68455;SDS011;55437;55.046;38.838;2022-08-27T13:27:31;14.40;;;7.32;;
68455;SDS011;55437;55.046;38.838;2022-08-27T13:30:07;17.35;;;8.65;;
68455;SDS011;55437;55.046;38.838;2022-08-27T13:32:35;14.07;;;7.13;;
68455;SDS011;55437;55.046;38.838;2022-08-27T13:35:02;16.63;;;7.70;;
68455;SDS011;55437;55.046;38.838;2022-08-27T13:37:33;13.90;;;7.90;;
68455;SDS011;55437;55.046;38.838;2022-08-27T13:40:02;13.98;;;7.40;;
68455;SDS011;55437;55.046;38.838;2022-08-27T13:42:29;14.82;;;7.97;;
68455;SDS011;55437;55.046;38.838;2022-08-27T13:45:00;12.73;;;7.10;;
68455;SDS011;55437;55.046;38.838;2022-08-27T13:47:29;18.58;;;10.00;;
68455;SDS011;55437;55.046;38.838;2022-08-27T13:50:09;32.97;;;19.88;;
68455;SDS011;55437;55.046;38.838;2022-08-27T13:52:42;40.30;;;24.20;;
68455;SDS011;55437;55.046;38.838;2022-08-27T13:55:26;49.50;;;27.48;;
68455;SDS011;55437;55.046;38.838;2022-08-27T13:57:54;49.88;;;29.35;;
68455;SDS011;55437;55.046;38.838;2022-08-27T14:02:50;53.13;;;30.77;;
68455;SDS011;55437;55.046;38.838;2022-08-27T14:07:51;50.03;;;28.73;;
68455;SDS011;55437;55.046;38.838;2022-08-27T14:13:09;40.55;;;23.13;;
68455;SDS011;55437;55.046;38.838;2022-08-27T14:15:43;34.20;;;21.77;;
68455;SDS011;55437;55.046;38.838;2022-08-27T14:20:48;39.30;;;23.55;;
68455;SDS011;55437;55.046;38.838;2022-08-27T14:23:14;34.17;;;22.88;;
68455;SDS011;55437;55.046;38.838;2022-08-27T14:25:44;32.85;;;19.73;;
68455;SDS011;55437;55.046;38.838;2022-08-27T14:28:10;28.92;;;16.50;;
68455;SDS011;55437;55.046;38.838;2022-08-27T14:30:36;25.02;;;15.02;;
68455;SDS011;55437;55.046;38.838;2022-08-27T14:33:01;21.38;;;12.35;;
68455;SDS011;55437;55.046;38.838;2022-08-27T14:35:28;25.13;;;13.93;;
68455;SDS011;55437;55.046;38.838;2022-08-27T14:37:56;17.80;;;11.00;;
68455;SDS011;55437;55.046;38.838;2022-08-27T14:40:25;21.50;;;13.65;;
68455;SDS011;55437;55.046;38.838;2022-08-27T14:42:51;17.67;;;9.07;;
68455;SDS011;55437;55.046;38.838;2022-08-27T14:45:17;15.38;;;8.70;;
68455;SDS011;55437;55.046;38.838;2022-08-27T14:47:43;16.50;;;9.25;;
68455;SDS011;55437;55.046;38.838;2022-08-27T14:50:10;15.02;;;8.43;;
68455;SDS011;55437;55.046;38.838;2022-08-27T14:52:37;14.85;;;8.70;;
68455;SDS011;55437;55.046;38.838;2022-08-27T14:55:04;17.60;;;7.95;;
68455;SDS011;55437;55.046;38.838;2022-08-27T14:57:30;15.48;;;9.05;;
68455;SDS011;55437;55.046;38.838;2022-08-27T14:59:56;12.95;;;7.47;;
68455;SDS011;55437;55.046;38.838;2022-08-27T15:02:23;13.65;;;7.57;;
68455;SDS011;55437;55.046;38.838;2022-08-27T15:04:49;14.35;;;7.47;;
68455;SDS011;55437;55.046;38.838;2022-08-27T15:07:15;17.88;;;8.55;;
68455;SDS011;55437;55.046;38.838;2022-08-27T15:09:44;14.85;;;8.20;;
68455;SDS011;55437;55.046;38.838;2022-08-27T15:12:11;17.52;;;8.02;;
68455;SDS011;55437;55.046;38.838;2022-08-27T15:14:37;20.92;;;8.95;;
68455;SDS011;55437;55.046;38.838;2022-08-27T15:17:07;17.25;;;9.40;;
68455;SDS011;55437;55.046;38.838;2022-08-27T15:19:34;21.17;;;9.38;;
68455;SDS011;55437;55.046;38.838;2022-08-27T15:22:02;17.77;;;9.40;;
68455;SDS011;55437;55.046;38.838;2022-08-27T15:24:41;18.83;;;10.13;;
68455;SDS011;55437;55.046;38.838;2022-08-27T15:27:09;17.13;;;10.27;;
68455;SDS011;55437;55.046;38.838;2022-08-27T15:29:35;17.67;;;9.13;;
68455;SDS011;55437;55.046;38.838;2022-08-27T15:32:01;19.40;;;10.35;;
68455;SDS011;55437;55.046;38.838;2022-08-27T15:34:28;17.70;;;10.70;;
68455;SDS011;55437;55.046;38.838;2022-08-27T15:36:54;18.85;;;11.45;;
68455;SDS011;55437;55.046;38.838;2022-08-27T15:39:21;18.88;;;11.07;;
68455;SDS011;55437;55.046;38.838;2022-08-27T15:41:48;21.35;;;12.23;;
68455;SDS011;55437;55.046;38.838;2022-08-27T15:44:14;21.27;;;12.35;;
68455;SDS011;55437;55.046;38.838;2022-08-27T15:46:40;22.13;;;12.23;;
68455;SDS011;55437;55.046;38.838;2022-08-27T15:49:09;27.25;;;15.07;;
68455;SDS011;55437;55.046;38.838;2022-08-27T15:51:37;21.83;;;13.18;;
68455;SDS011;55437;55.046;38.838;2022-08-27T15:54:03;21.38;;;13.57;;
68455;SDS011;55437;55.046;38.838;2022-08-27T15:56:29;23.85;;;13.10;;
68455;SDS011;55437;55.046;38.838;2022-08-27T15:58:54;20.85;;;12.82;;
68455;SDS011;55437;55.046;38.838;2022-08-27T16:01:23;25.77;;;12.95;;
68455;SDS011;55437;55.046;38.838;2022-08-27T16:03:51;24.00;;;14.18;;
68455;SDS011;55437;55.046;38.838;2022-08-27T16:06:17;24.13;;;14.25;;
68455;SDS011;55437;55.046;38.838;2022-08-27T16:08:43;27.73;;;14.80;;
68455;SDS011;55437;55.046;38.838;2022-08-27T16:11:09;28.50;;;18.20;;
68455;SDS011;55437;55.046;38.838;2022-08-27T16:13:35;28.50;;;16.75;;
68455;SDS011;55437;55.046;38.838;2022-08-27T16:16:02;26.05;;;15.27;;
68455;SDS011;55437;55.046;38.838;2022-08-27T16:18:29;26.15;;;14.20;;